createdAt,value
2023-03-15T00:01:15.794Z,1.73
2023-03-15T00:03:44.430Z,2.03
2023-03-15T00:06:12.881Z,1.70
2023-03-15T00:08:40.834Z,1.40
2023-03-15T00:11:07.974Z,1.47
2023-03-15T00:13:35.249Z,1.73
2023-03-15T00:16:03.524Z,1.60
2023-03-15T00:18:31.178Z,1.57
2023-03-15T00:20:58.747Z,2.00
2023-03-15T00:23:26.113Z,1.93
2023-03-15T00:25:54.140Z,2.17
2023-03-15T00:28:21.643Z,2.60
2023-03-15T00:30:48.781Z,2.30
2023-03-15T00:33:16.893Z,3.17
2023-03-15T00:35:45.672Z,2.63
2023-03-15T00:38:14.110Z,2.50
2023-03-15T00:40:41.366Z,3.13
2023-03-15T00:43:08.417Z,2.90
2023-03-15T00:45:35.505Z,3.00
2023-03-15T00:48:02.629Z,2.37
2023-03-15T00:50:29.717Z,2.97
2023-03-15T00:52:56.905Z,2.30
2023-03-15T00:55:24.069Z,2.00
2023-03-15T00:57:51.156Z,1.53
2023-03-15T01:00:24.503Z,2.10
2023-03-15T01:02:54.221Z,1.80
2023-03-15T01:05:22.355Z,1.77
2023-03-15T01:07:49.609Z,1.70
2023-03-15T01:10:17.902Z,1.53
2023-03-15T01:12:47.950Z,1.53
2023-03-15T01:15:16.206Z,1.20
2023-03-15T01:17:43.817Z,1.30
2023-03-15T01:20:14.597Z,1.10
2023-03-15T01:22:41.956Z,1.17
2023-03-15T01:25:09.959Z,1.20
2023-03-15T01:27:37.572Z,0.93
2023-03-15T01:30:07.024Z,1.40
2023-03-15T01:32:34.719Z,1.57
2023-03-15T01:35:01.922Z,1.50
2023-03-15T01:37:29.036Z,1.60
2023-03-15T01:39:56.116Z,1.33
2023-03-15T01:42:23.385Z,1.27
2023-03-15T01:45:00.601Z,1.53
2023-03-15T01:47:28.715Z,1.37
2023-03-15T01:50:16.012Z,0.93
2023-03-15T01:52:43.620Z,2.13
2023-03-15T01:55:19.739Z,1.20
2023-03-15T01:57:57.249Z,1.43
2023-03-15T02:00:26.576Z,0.90
2023-03-15T02:03:14.403Z,0.87
2023-03-15T02:05:54.667Z,1.67
2023-03-15T02:08:26.513Z,1.63
2023-03-15T02:10:58.778Z,1.60
2023-03-15T02:13:28.957Z,1.20
2023-03-15T02:15:57.115Z,1.50
2023-03-15T02:18:24.598Z,1.07
2023-03-15T02:21:15.325Z,1.57
2023-03-15T02:23:47.956Z,1.30
2023-03-15T02:26:45.375Z,1.20
2023-03-15T02:29:12.941Z,1.07
2023-03-15T02:31:40.477Z,1.00
2023-03-15T02:34:08.540Z,1.10
2023-03-15T02:36:37.438Z,1.10
2023-03-15T02:39:18.007Z,1.37
2023-03-15T02:41:53.088Z,1.33
2023-03-15T02:44:39.688Z,1.40
2023-03-15T02:47:22.059Z,1.57
2023-03-15T02:49:54.026Z,1.77
2023-03-15T02:52:23.023Z,1.50
2023-03-15T02:54:50.354Z,1.17
2023-03-15T02:57:19.442Z,1.20
2023-03-15T02:59:47.350Z,1.20
2023-03-15T03:02:14.466Z,1.60
2023-03-15T03:04:41.775Z,1.60
2023-03-15T03:07:09.082Z,1.57
2023-03-15T03:09:36.214Z,1.90
2023-03-15T03:12:03.637Z,1.00
2023-03-15T03:14:31.229Z,0.73
2023-03-15T03:16:58.504Z,1.10
2023-03-15T03:19:25.978Z,1.33
2023-03-15T03:21:54.512Z,1.13
2023-03-15T03:24:22.233Z,2.20
2023-03-15T03:26:49.300Z,3.53
2023-03-15T03:29:16.443Z,6.50
2023-03-15T03:31:44.689Z,10.23
2023-03-15T03:34:15.378Z,14.80
2023-03-15T03:36:43.757Z,16.10
2023-03-15T03:39:11.414Z,17.83
2023-03-15T03:41:38.497Z,21.17
2023-03-15T03:44:06.038Z,27.07
2023-03-15T03:46:43.144Z,28.37
2023-03-15T03:49:14.699Z,28.23
2023-03-15T03:51:41.803Z,22.50
2023-03-15T03:54:08.883Z,17.80
2023-03-15T03:56:38.336Z,11.87
2023-03-15T03:59:05.389Z,9.33
2023-03-15T04:01:33.587Z,9.30
2023-03-15T04:04:00.622Z,7.73
2023-03-15T04:06:27.715Z,4.57
2023-03-15T04:08:54.788Z,4.70
2023-03-15T04:11:21.975Z,4.10
2023-03-15T04:13:49.249Z,4.73
2023-03-15T04:16:16.387Z,3.83
2023-03-15T04:18:43.471Z,4.17
2023-03-15T04:21:10.791Z,4.00
2023-03-15T04:23:38.876Z,3.67
2023-03-15T04:26:08.444Z,2.40
2023-03-15T04:28:38.030Z,2.73
2023-03-15T04:31:10.720Z,2.67
2023-03-15T04:33:37.890Z,3.20
2023-03-15T04:36:05.275Z,2.10
2023-03-15T04:38:32.523Z,2.00
2023-03-15T04:40:59.545Z,1.87
2023-03-15T04:43:26.673Z,1.53
2023-03-15T04:45:55.936Z,1.80
2023-03-15T04:48:23.006Z,1.77
2023-03-15T04:50:50.297Z,2.10
2023-03-15T04:53:17.370Z,1.50
2023-03-15T04:55:44.494Z,2.10
2023-03-15T04:58:11.659Z,1.30
2023-03-15T05:00:38.794Z,2.00
2023-03-15T05:03:05.961Z,1.50
2023-03-15T05:05:34.277Z,1.50
2023-03-15T05:08:01.569Z,1.87
2023-03-15T05:10:31.371Z,1.40
2023-03-15T05:12:58.468Z,2.27
2023-03-15T05:15:26.946Z,2.20
2023-03-15T05:17:55.910Z,1.53
2023-03-15T05:20:23.254Z,2.47
2023-03-15T05:22:50.332Z,1.50
2023-03-15T05:25:17.743Z,1.53
2023-03-15T05:27:46.411Z,2.67
2023-03-15T05:30:15.576Z,1.73
2023-03-15T05:32:44.622Z,1.93
2023-03-15T05:35:13.803Z,1.77
2023-03-15T05:37:42.350Z,1.90
2023-03-15T05:40:11.451Z,1.57
2023-03-15T05:42:38.552Z,1.20
2023-03-15T05:45:06.555Z,2.10
2023-03-15T05:47:34.214Z,1.47
2023-03-15T05:50:01.325Z,1.30
2023-03-15T05:52:28.526Z,1.53
2023-03-15T05:54:55.607Z,1.90
2023-03-15T05:57:22.840Z,1.87
2023-03-15T05:59:54.120Z,2.70
2023-03-15T06:02:22.357Z,2.73
2023-03-15T06:04:49.430Z,1.90
2023-03-15T06:07:16.592Z,4.60
2023-03-15T06:09:43.645Z,4.07
2023-03-15T06:12:11.190Z,2.37
2023-03-15T06:14:38.361Z,3.60
2023-03-15T06:17:05.525Z,3.60
2023-03-15T06:19:37.366Z,8.70
2023-03-15T06:22:04.970Z,8.10
2023-03-15T06:24:32.092Z,3.63
2023-03-15T06:26:59.161Z,7.97
2023-03-15T06:29:26.412Z,4.03
2023-03-15T06:31:53.811Z,2.63
2023-03-15T06:34:21.528Z,2.00
2023-03-15T06:36:49.697Z,1.33
2023-03-15T06:39:17.023Z,2.53
2023-03-15T06:41:44.222Z,1.87
2023-03-15T06:44:11.664Z,2.00
2023-03-15T06:46:40.094Z,1.57
2023-03-15T06:49:07.522Z,1.50
2023-03-15T06:51:34.655Z,2.60
2023-03-15T06:54:01.869Z,2.50
2023-03-15T06:56:29.858Z,1.17
2023-03-15T06:58:56.901Z,1.50
2023-03-15T07:01:25.304Z,2.23
2023-03-15T07:03:52.371Z,1.70
2023-03-15T07:06:19.569Z,2.30
2023-03-15T07:08:46.721Z,2.00
2023-03-15T07:11:14.281Z,1.30
2023-03-15T07:13:43.398Z,2.00
2023-03-15T07:16:13.333Z,1.60
2023-03-15T07:18:40.744Z,2.53
2023-03-15T07:21:08.157Z,1.87
2023-03-15T07:23:35.462Z,1.70
2023-03-15T07:26:02.772Z,2.40
2023-03-15T07:28:30.086Z,1.67
2023-03-15T07:31:04.239Z,1.80
2023-03-15T07:33:35.782Z,2.20
2023-03-15T07:36:06.860Z,2.00
2023-03-15T07:38:36.230Z,1.90
2023-03-15T07:41:06.424Z,2.00
2023-03-15T07:43:34.624Z,2.33
2023-03-15T07:46:02.113Z,2.70
2023-03-15T07:48:32.254Z,2.07
2023-03-15T07:50:59.746Z,2.93
2023-03-15T07:53:27.470Z,2.40
2023-03-15T07:55:55.105Z,2.30
2023-03-15T07:58:25.156Z,2.20
2023-03-15T08:00:58.146Z,2.03
2023-03-15T08:03:27.026Z,2.47
2023-03-15T08:05:57.286Z,2.23
2023-03-15T08:08:24.403Z,1.70
2023-03-15T08:10:55.809Z,2.03
2023-03-15T08:13:24.360Z,1.83
2023-03-15T08:15:52.877Z,1.57
2023-03-15T08:18:20.046Z,2.10
2023-03-15T08:20:47.178Z,1.90
2023-03-15T08:23:16.626Z,1.70
2023-03-15T08:25:45.063Z,1.93
2023-03-15T08:28:12.722Z,1.97
2023-03-15T08:30:40.694Z,2.20
2023-03-15T08:33:08.935Z,2.63
2023-03-15T08:35:36.163Z,2.13
2023-03-15T08:38:03.673Z,1.80
2023-03-15T08:40:31.917Z,2.00
2023-03-15T08:43:00.209Z,1.90
2023-03-15T08:45:27.741Z,1.97
2023-03-15T08:47:59.819Z,1.47
2023-03-15T08:50:31.601Z,2.00
2023-03-15T08:52:58.808Z,1.97
2023-03-15T08:55:25.925Z,2.00
2023-03-15T08:57:52.975Z,1.90
2023-03-15T09:00:22.644Z,1.77
2023-03-15T09:02:53.751Z,2.00
2023-03-15T09:05:25.384Z,1.27
2023-03-15T09:07:53.179Z,1.80
2023-03-15T09:10:22.041Z,1.70
2023-03-15T09:12:53.605Z,1.60
2023-03-15T09:15:21.646Z,1.83
2023-03-15T09:17:53.011Z,1.83
2023-03-15T09:20:22.806Z,2.67
2023-03-15T09:22:57.995Z,1.10
2023-03-15T09:25:27.551Z,1.17
2023-03-15T09:27:55.265Z,1.43
2023-03-15T09:30:23.219Z,1.00
2023-03-15T09:32:51.369Z,1.20
2023-03-15T09:35:21.215Z,1.40
2023-03-15T09:37:53.201Z,0.93
2023-03-15T09:40:30.745Z,0.80
2023-03-15T09:43:10.264Z,1.00
2023-03-15T09:46:17.229Z,0.90
2023-03-15T09:49:45.479Z,0.77
2023-03-15T09:52:47.057Z,0.70
2023-03-15T09:55:28.976Z,1.00
2023-03-15T09:58:17.141Z,1.00
2023-03-15T10:01:05.116Z,0.83
2023-03-15T10:03:48.905Z,1.13
2023-03-15T10:06:36.499Z,1.47
2023-03-15T10:09:23.624Z,1.37
2023-03-15T10:12:15.364Z,1.70
2023-03-15T10:15:52.517Z,0.93
2023-03-15T10:18:52.929Z,1.53
2023-03-15T10:22:18.488Z,1.70
2023-03-15T10:24:54.380Z,0.90
2023-03-15T10:27:50.895Z,1.00
2023-03-15T10:30:29.541Z,1.00
2023-03-15T10:33:28.626Z,0.77
2023-03-15T10:36:07.835Z,1.17
2023-03-15T10:38:39.503Z,0.80
2023-03-15T10:41:07.842Z,1.40
2023-03-15T10:43:37.745Z,0.93
2023-03-15T10:46:22.883Z,1.27
2023-03-15T10:49:13.196Z,0.87
2023-03-15T10:51:47.957Z,0.93
2023-03-15T10:54:25.184Z,1.07
2023-03-15T10:57:13.259Z,1.03
2023-03-15T11:00:24.096Z,1.07
2023-03-15T11:03:24.149Z,0.70
2023-03-15T11:06:01.634Z,1.27
2023-03-15T11:08:42.938Z,1.60
2023-03-15T11:11:11.249Z,0.93
2023-03-15T11:13:41.985Z,2.20
2023-03-15T11:16:22.581Z,2.37
2023-03-15T11:19:03.750Z,3.17
2023-03-15T11:21:35.558Z,1.10
2023-03-15T11:24:06.342Z,0.90
2023-03-15T11:26:41.112Z,0.53
2023-03-15T11:29:21.045Z,1.00
2023-03-15T11:31:49.937Z,0.80
2023-03-15T11:34:44.389Z,1.33
2023-03-15T11:37:48.649Z,1.17
2023-03-15T11:40:39.762Z,1.10
2023-03-15T11:43:11.972Z,1.30
2023-03-15T11:46:11.707Z,1.30
2023-03-15T11:48:54.037Z,1.03
2023-03-15T11:51:21.513Z,1.10
2023-03-15T11:54:17.682Z,0.97
2023-03-15T11:56:50.406Z,0.87
2023-03-15T11:59:40.613Z,1.33
2023-03-15T12:02:11.550Z,1.00
2023-03-15T12:04:49.597Z,1.50
2023-03-15T12:07:19.759Z,1.13
2023-03-15T12:10:36.344Z,1.17
2023-03-15T12:13:30.043Z,1.20
2023-03-15T12:15:59.479Z,1.00
2023-03-15T12:18:43.978Z,1.17
2023-03-15T12:21:35.645Z,1.00
2023-03-15T12:24:23.330Z,0.93
2023-03-15T12:26:59.618Z,1.40
2023-03-15T12:29:35.516Z,0.77
2023-03-15T12:32:07.642Z,1.07
2023-03-15T12:34:55.354Z,0.83
2023-03-15T12:37:38.991Z,0.80
2023-03-15T12:40:19.014Z,0.97
2023-03-15T12:42:49.025Z,1.20
2023-03-15T12:45:17.523Z,1.40
2023-03-15T12:48:12.870Z,0.80
2023-03-15T12:50:46.990Z,0.80
2023-03-15T12:53:27.762Z,0.90
2023-03-15T12:56:16.874Z,0.83
2023-03-15T12:58:49.182Z,0.83
2023-03-15T13:01:24.620Z,0.63
2023-03-15T13:04:03.543Z,0.73
2023-03-15T13:07:22.783Z,0.57
2023-03-15T13:10:41.660Z,1.00
2023-03-15T13:14:12.267Z,0.90
2023-03-15T13:16:54.107Z,0.63
2023-03-15T13:19:35.783Z,0.70
2023-03-15T13:22:36.009Z,0.60
2023-03-15T13:25:26.646Z,0.70
2023-03-15T13:28:37.438Z,1.07
2023-03-15T13:31:17.943Z,0.70
2023-03-15T13:33:57.789Z,0.63
2023-03-15T13:36:48.117Z,1.17
2023-03-15T13:39:24.789Z,1.03
2023-03-15T13:42:07.677Z,0.77
2023-03-15T13:44:35.651Z,1.23
2023-03-15T13:47:03.372Z,0.80
2023-03-15T13:49:34.400Z,0.70
2023-03-15T13:52:12.244Z,1.03
2023-03-15T13:54:47.430Z,0.80
2023-03-15T13:57:20.523Z,0.90
2023-03-15T14:00:10.633Z,1.13
2023-03-15T14:02:43.268Z,0.93
2023-03-15T14:05:18.774Z,1.03
2023-03-15T14:07:49.928Z,0.90
2023-03-15T14:10:39.666Z,0.50
2023-03-15T14:13:31.880Z,0.63
2023-03-15T14:16:07.740Z,0.80
2023-03-15T14:18:41.078Z,0.77
2023-03-15T14:21:28.537Z,0.80
2023-03-15T14:23:55.888Z,0.70
2023-03-15T14:26:31.132Z,0.83
2023-03-15T14:29:05.185Z,0.90
2023-03-15T14:31:41.571Z,0.83
2023-03-15T14:34:47.339Z,0.97
2023-03-15T14:37:37.528Z,0.70
2023-03-15T14:40:35.743Z,1.40
2023-03-15T14:43:05.852Z,0.90
2023-03-15T14:45:36.601Z,0.70
2023-03-15T14:48:35.302Z,0.90
2023-03-15T14:51:03.824Z,0.80
2023-03-15T14:53:37.395Z,1.30
2023-03-15T14:56:05.256Z,1.03
2023-03-15T14:58:32.576Z,1.07
2023-03-15T15:00:59.709Z,0.63
2023-03-15T15:03:41.326Z,0.90
2023-03-15T15:06:13.383Z,0.93
2023-03-15T15:08:49.472Z,1.40
2023-03-15T15:11:17.362Z,0.90
2023-03-15T15:13:44.697Z,0.83
2023-03-15T15:16:11.848Z,1.47
2023-03-15T15:18:39.028Z,0.70
2023-03-15T15:21:33.882Z,1.10
2023-03-15T15:24:05.047Z,0.70
2023-03-15T15:26:34.360Z,0.90
2023-03-15T15:29:01.842Z,0.57
2023-03-15T15:31:33.660Z,0.40
2023-03-15T15:34:01.816Z,1.10
2023-03-15T15:36:35.958Z,0.90
2023-03-15T15:39:07.509Z,0.93
2023-03-15T15:41:35.265Z,0.93
2023-03-15T15:44:02.494Z,2.07
2023-03-15T15:46:29.732Z,0.90
2023-03-15T15:48:56.918Z,0.90
2023-03-15T15:51:32.181Z,0.50
2023-03-15T15:54:01.473Z,1.17
2023-03-15T15:56:44.277Z,0.50
2023-03-15T15:59:15.393Z,0.90
2023-03-15T16:01:58.845Z,1.00
2023-03-15T16:04:28.242Z,0.83
2023-03-15T16:07:01.352Z,0.60
2023-03-15T16:09:31.174Z,0.80
2023-03-15T16:11:58.634Z,0.73
2023-03-15T16:14:27.958Z,0.90
2023-03-15T16:16:55.132Z,1.17
2023-03-15T16:19:22.199Z,0.80
2023-03-15T16:21:52.007Z,0.80
2023-03-15T16:24:30.765Z,1.00
2023-03-15T16:27:04.223Z,0.83
2023-03-15T16:29:53.154Z,0.70
2023-03-15T16:32:36.819Z,0.90
2023-03-15T16:35:16.005Z,0.40
2023-03-15T16:37:45.677Z,0.93
2023-03-15T16:40:31.713Z,1.00
2023-03-15T16:42:59.410Z,1.40
2023-03-15T16:45:28.184Z,0.90
2023-03-15T16:47:56.333Z,4.20
2023-03-15T16:50:26.134Z,1.70
2023-03-15T16:52:56.748Z,1.20
2023-03-15T16:55:32.773Z,0.90
2023-03-15T16:58:17.448Z,1.00
2023-03-15T17:00:46.980Z,0.93
2023-03-15T17:03:15.018Z,0.70
2023-03-15T17:05:46.365Z,0.90
2023-03-15T17:08:20.112Z,0.90
2023-03-15T17:10:48.044Z,0.63
2023-03-15T17:13:25.498Z,0.83
2023-03-15T17:15:55.566Z,0.60
2023-03-15T17:18:23.980Z,1.20
2023-03-15T17:20:51.205Z,0.67
2023-03-15T17:23:20.835Z,0.90
2023-03-15T17:25:49.055Z,0.83
2023-03-15T17:28:16.358Z,1.17
2023-03-15T17:30:43.718Z,0.40
2023-03-15T17:33:11.388Z,0.50
2023-03-15T17:35:47.126Z,1.30
2023-03-15T17:38:19.666Z,1.37
2023-03-15T17:40:47.069Z,1.67
2023-03-15T17:43:16.972Z,0.90
2023-03-15T17:45:44.356Z,0.90
2023-03-15T17:48:11.687Z,0.80
2023-03-15T17:50:42.934Z,0.83
2023-03-15T17:53:19.732Z,0.90
2023-03-15T17:55:47.839Z,0.90
2023-03-15T17:58:22.420Z,0.80
2023-03-15T18:00:54.706Z,0.70
2023-03-15T18:03:23.490Z,1.00
2023-03-15T18:05:51.431Z,1.03
2023-03-15T18:08:21.300Z,1.40
2023-03-15T18:10:50.193Z,1.30
2023-03-15T18:13:26.248Z,1.50
2023-03-15T18:15:53.670Z,1.73
2023-03-15T18:18:20.834Z,1.50
2023-03-15T18:20:49.367Z,1.50
2023-03-15T18:23:18.309Z,1.33
2023-03-15T18:25:45.434Z,1.57
2023-03-15T18:28:12.532Z,1.47
2023-03-15T18:30:39.861Z,1.30
2023-03-15T18:33:07.498Z,1.30
2023-03-15T18:35:36.697Z,1.00
2023-03-15T18:38:06.050Z,1.40
2023-03-15T18:40:35.035Z,1.20
2023-03-15T18:43:04.017Z,1.20
2023-03-15T18:45:35.401Z,1.03
2023-03-15T18:48:02.668Z,1.30
2023-03-15T18:50:30.190Z,1.20
2023-03-15T18:52:58.042Z,1.20
2023-03-15T18:55:25.840Z,0.90
2023-03-15T18:57:55.439Z,1.30
2023-03-15T19:00:28.289Z,0.90
2023-03-15T19:02:59.419Z,0.77
2023-03-15T19:05:28.779Z,0.93
2023-03-15T19:07:56.223Z,0.90
2023-03-15T19:10:25.489Z,0.73
2023-03-15T19:12:53.736Z,0.80
2023-03-15T19:15:25.394Z,1.00
2023-03-15T19:17:54.511Z,0.80
2023-03-15T19:20:23.656Z,1.47
2023-03-15T19:22:52.526Z,1.10
2023-03-15T19:25:23.387Z,1.30
2023-03-15T19:27:50.515Z,0.90
2023-03-15T19:30:21.964Z,1.00
2023-03-15T19:32:50.346Z,0.90
2023-03-15T19:35:19.534Z,1.10
2023-03-15T19:37:48.140Z,1.23
2023-03-15T19:40:17.346Z,1.40
2023-03-15T19:42:45.350Z,1.10
2023-03-15T19:45:13.346Z,1.30
2023-03-15T19:47:40.955Z,1.43
2023-03-15T19:50:12.036Z,1.23
2023-03-15T19:52:45.657Z,1.40
2023-03-15T19:55:21.774Z,4.87
2023-03-15T19:57:48.916Z,2.07
2023-03-15T20:00:19.125Z,2.77
2023-03-15T20:02:47.592Z,2.43
2023-03-15T20:05:18.920Z,2.50
2023-03-15T20:07:47.180Z,2.10
2023-03-15T20:10:15.100Z,3.13
2023-03-15T20:12:43.044Z,2.27
2023-03-15T20:15:13.062Z,2.53
2023-03-15T20:17:41.045Z,1.80
2023-03-15T20:20:11.393Z,2.37
2023-03-15T20:22:41.549Z,2.03
2023-03-15T20:25:12.753Z,2.37
2023-03-15T20:27:40.018Z,3.03
2023-03-15T20:30:10.321Z,2.10
2023-03-15T20:32:37.431Z,1.93
2023-03-15T20:35:08.982Z,2.20
2023-03-15T20:37:40.260Z,2.07
2023-03-15T20:40:14.404Z,1.90
2023-03-15T20:42:42.476Z,2.27
2023-03-15T20:45:12.536Z,2.40
2023-03-15T20:47:41.228Z,2.50
2023-03-15T20:50:11.381Z,2.40
2023-03-15T20:52:39.046Z,2.63
2023-03-15T20:55:07.964Z,2.87
2023-03-15T20:57:36.370Z,2.53
2023-03-15T21:00:12.312Z,2.97
2023-03-15T21:02:40.389Z,2.40
2023-03-15T21:05:12.923Z,3.07
2023-03-15T21:07:41.504Z,2.70
2023-03-15T21:10:10.887Z,2.93
2023-03-15T21:12:38.020Z,2.90
2023-03-15T21:15:06.462Z,3.10
2023-03-15T21:17:33.629Z,3.10
2023-03-15T21:20:00.961Z,3.30
2023-03-15T21:22:28.010Z,3.10
2023-03-15T21:24:56.344Z,3.20
2023-03-15T21:27:26.408Z,2.80
2023-03-15T21:29:54.070Z,3.63
2023-03-15T21:32:21.557Z,3.20
2023-03-15T21:34:48.586Z,3.17
2023-03-15T21:37:15.717Z,4.00
2023-03-15T21:39:42.820Z,3.97
2023-03-15T21:42:10.035Z,3.70
2023-03-15T21:44:39.918Z,3.33
2023-03-15T21:47:07.018Z,4.07
2023-03-15T21:49:34.064Z,3.40
2023-03-15T21:52:02.351Z,3.57
2023-03-15T21:54:29.544Z,3.53
2023-03-15T21:56:56.804Z,3.07
2023-03-15T21:59:27.984Z,3.27
2023-03-15T22:01:56.753Z,3.97
2023-03-15T22:04:24.780Z,3.60
2023-03-15T22:06:54.794Z,3.27
2023-03-15T22:09:23.319Z,2.90
2023-03-15T22:11:53.776Z,3.00
2023-03-15T22:14:21.735Z,3.73
2023-03-15T22:16:48.791Z,3.50
2023-03-15T22:19:15.885Z,3.33
2023-03-15T22:21:43.163Z,3.87
2023-03-15T22:24:10.730Z,3.50
2023-03-15T22:26:37.770Z,3.30
2023-03-15T22:29:04.882Z,4.13
2023-03-15T22:31:32.003Z,4.03
2023-03-15T22:33:59.144Z,4.17
2023-03-15T22:36:26.250Z,4.00
2023-03-15T22:38:53.333Z,4.03
2023-03-15T22:41:20.714Z,3.87
2023-03-15T22:43:47.864Z,4.23
2023-03-15T22:46:14.972Z,3.60
2023-03-15T22:48:42.133Z,4.03
2023-03-15T22:51:14.075Z,4.50
2023-03-15T22:53:41.368Z,4.63
2023-03-15T22:56:08.452Z,4.20
2023-03-15T22:58:35.920Z,4.17
2023-03-15T23:01:04.189Z,4.00
2023-03-15T23:03:31.515Z,3.80
2023-03-15T23:05:58.785Z,3.80
2023-03-15T23:08:25.924Z,3.43
2023-03-15T23:10:53.284Z,3.67
2023-03-15T23:13:20.358Z,3.43
2023-03-15T23:15:47.483Z,3.73
2023-03-15T23:18:14.965Z,3.40
2023-03-15T23:20:42.833Z,3.10
2023-03-15T23:23:09.884Z,3.40
2023-03-15T23:25:39.172Z,3.13
2023-03-15T23:28:07.572Z,3.10
2023-03-15T23:30:36.200Z,3.30
2023-03-15T23:33:03.767Z,3.23
2023-03-15T23:35:31.688Z,2.93
2023-03-15T23:37:58.837Z,3.00
2023-03-15T23:40:26.920Z,2.60
2023-03-15T23:42:59.042Z,2.93
2023-03-15T23:45:29.822Z,2.53
2023-03-15T23:47:57.390Z,3.17
2023-03-15T23:50:26.216Z,2.77
2023-03-15T23:52:55.951Z,2.50
2023-03-15T23:55:24.239Z,2.97
2023-03-15T23:57:51.332Z,2.83
